createdAt,value
2022-12-01T00:01:24.524Z,100304.16
2022-12-01T00:03:51.476Z,100313.72
2022-12-01T00:06:22.985Z,100309.56
2022-12-01T00:09:10.904Z,100306.97
2022-12-01T00:11:40.382Z,100306.66
2022-12-01T00:14:09.984Z,100299.81
2022-12-01T00:16:37.501Z,100306.66
2022-12-01T00:19:04.717Z,100301.59
2022-12-01T00:21:32.060Z,100299.91
2022-12-01T00:23:59.054Z,100297.94
2022-12-01T00:26:27.346Z,100304.00
2022-12-01T00:28:57.013Z,100307.91
2022-12-01T00:31:25.286Z,100304.22
2022-12-01T00:33:52.387Z,100317.81
2022-12-01T00:36:19.697Z,100319.16
2022-12-01T00:38:46.844Z,100306.22
2022-12-01T00:41:14.201Z,100305.88
2022-12-01T00:43:41.404Z,100306.34
2022-12-01T00:46:11.394Z,100312.78
2022-12-01T00:48:41.302Z,100305.81
2022-12-01T00:51:08.914Z,100300.94
2022-12-01T00:53:35.977Z,100293.63
2022-12-01T00:56:05.975Z,100298.97
2022-12-01T00:58:32.953Z,100299.84
2022-12-01T01:01:03.916Z,100300.41
2022-12-01T01:03:32.584Z,100291.66
2022-12-01T01:06:08.707Z,100294.50
2022-12-01T01:08:36.022Z,100296.16
2022-12-01T01:11:06.733Z,100296.91
2022-12-01T01:13:34.535Z,100290.72
2022-12-01T01:16:08.664Z,100295.72
2022-12-01T01:18:35.679Z,100289.50
2022-12-01T01:21:06.009Z,100286.00
2022-12-01T01:23:33.037Z,100291.34
2022-12-01T01:26:09.506Z,100280.28
2022-12-01T01:28:36.742Z,100289.44
2022-12-01T01:31:09.454Z,100288.41
2022-12-01T01:33:39.365Z,100294.50
2022-12-01T01:36:07.137Z,100287.38
2022-12-01T01:38:35.093Z,100291.09
2022-12-01T01:41:03.174Z,100293.94
2022-12-01T01:43:48.765Z,100291.84
2022-12-01T01:46:19.239Z,100293.69
2022-12-01T01:48:50.975Z,100295.19
2022-12-01T01:51:23.758Z,100291.41
2022-12-01T01:53:56.144Z,100283.41
2022-12-01T01:56:24.195Z,100288.41
2022-12-01T01:58:52.497Z,100288.09
2022-12-01T02:01:19.987Z,100276.41
2022-12-01T02:03:47.732Z,100289.00
2022-12-01T02:06:15.289Z,100285.03
2022-12-01T02:08:42.318Z,100294.13
2022-12-01T02:11:12.226Z,100286.72
2022-12-01T02:13:46.137Z,100293.81
2022-12-01T02:16:15.711Z,100288.03
2022-12-01T02:18:45.730Z,100283.34
2022-12-01T02:21:25.403Z,100282.38
2022-12-01T02:24:10.804Z,100286.84
2022-12-01T02:26:50.331Z,100295.16
2022-12-01T02:30:00.195Z,100297.88
2022-12-01T02:32:41.740Z,100297.88
2022-12-01T02:35:13.646Z,100303.34
2022-12-01T02:38:00.356Z,100294.38
2022-12-01T02:40:31.665Z,100299.53
2022-12-01T02:43:28.541Z,100295.44
2022-12-01T02:46:07.014Z,100300.63
2022-12-01T02:48:36.697Z,100294.38
2022-12-01T02:51:12.793Z,100300.63
2022-12-01T02:53:40.136Z,100299.06
2022-12-01T02:56:12.342Z,100301.03
2022-12-01T02:58:39.994Z,100294.66
2022-12-01T03:01:44.314Z,100294.66
2022-12-01T03:04:24.351Z,100296.53
2022-12-01T03:07:21.317Z,100287.41
2022-12-01T03:10:16.003Z,100287.09
2022-12-01T03:13:05.183Z,100292.66
2022-12-01T03:15:52.460Z,100285.97
2022-12-01T03:18:35.566Z,100282.00
2022-12-01T03:21:11.997Z,100291.97
2022-12-01T03:23:42.961Z,100281.19
2022-12-01T03:26:16.464Z,100276.94
2022-12-01T03:29:00.833Z,100279.78
2022-12-01T03:31:33.353Z,100280.66
2022-12-01T03:34:28.320Z,100279.56
2022-12-01T03:37:02.456Z,100280.91
2022-12-01T03:39:34.940Z,100281.81
2022-12-01T03:42:26.071Z,100280.25
2022-12-01T03:44:56.906Z,100286.16
2022-12-01T03:47:29.563Z,100282.78
2022-12-01T03:49:56.895Z,100286.53
2022-12-01T03:52:49.608Z,100286.63
2022-12-01T03:55:31.445Z,100280.84
2022-12-01T03:58:06.300Z,100284.03
2022-12-01T04:00:33.956Z,100281.41
2022-12-01T04:03:06.223Z,100283.81
2022-12-01T04:05:34.861Z,100283.81
2022-12-01T04:08:02.422Z,100283.81
2022-12-01T04:10:29.424Z,100285.16
2022-12-01T04:12:59.713Z,100289.09
2022-12-01T04:15:29.358Z,100287.88
2022-12-01T04:17:56.671Z,100285.16
2022-12-01T04:20:25.543Z,100279.38
2022-12-01T04:22:52.801Z,100287.22
2022-12-01T04:25:19.795Z,100279.16
2022-12-01T04:27:47.095Z,100283.22
2022-12-01T04:30:14.368Z,100282.66
2022-12-01T04:32:43.479Z,100287.34
2022-12-01T04:35:12.553Z,100280.69
2022-12-01T04:37:41.161Z,100274.47
2022-12-01T04:40:13.744Z,100272.84
2022-12-01T04:42:43.334Z,100282.88
2022-12-01T04:45:10.662Z,100269.69
2022-12-01T04:47:37.892Z,100287.44
2022-12-01T04:50:05.439Z,100285.47
2022-12-01T04:52:35.429Z,100284.25
2022-12-01T04:55:04.045Z,100281.41
2022-12-01T04:57:31.309Z,100283.25
2022-12-01T04:59:58.184Z,100280.84
2022-12-01T05:02:25.780Z,100288.59
2022-12-01T05:04:52.974Z,100290.91
2022-12-01T05:07:20.307Z,100295.59
2022-12-01T05:09:47.619Z,100298.66
2022-12-01T05:12:17.281Z,100295.03
2022-12-01T05:14:46.543Z,100294.69
2022-12-01T05:17:13.847Z,100295.47
2022-12-01T05:19:59.318Z,100289.25
2022-12-01T05:22:56.804Z,100298.66
2022-12-01T05:25:13.552Z,100297.22
2022-12-01T05:27:40.820Z,100301.50
2022-12-01T05:30:08.389Z,100297.22
2022-12-01T05:32:35.664Z,100302.34
2022-12-01T05:35:02.652Z,100304.94
2022-12-01T05:37:34.730Z,100312.72
2022-12-01T05:40:02.124Z,100306.16
2022-12-01T05:42:29.339Z,100304.31
2022-12-01T05:44:56.424Z,100308.91
2022-12-01T05:47:26.022Z,100312.38
2022-12-01T05:49:52.982Z,100308.91
2022-12-01T05:52:20.253Z,100317.41
2022-12-01T05:54:47.312Z,100321.19
2022-12-01T05:57:14.632Z,100320.78
2022-12-01T05:59:43.839Z,100318.78
2022-12-01T06:02:11.197Z,100327.31
2022-12-01T06:04:38.992Z,100322.06
2022-12-01T06:07:06.394Z,100322.94
2022-12-01T06:09:33.492Z,100320.53
2022-12-01T06:12:01.142Z,100333.75
2022-12-01T06:14:28.126Z,100338.75
2022-12-01T06:16:55.613Z,100338.09
2022-12-01T06:19:22.754Z,100340.25
2022-12-01T06:21:51.526Z,100341.47
2022-12-01T06:24:20.700Z,100335.91
2022-12-01T06:26:47.997Z,100336.97
2022-12-01T06:29:15.226Z,100336.13
2022-12-01T06:31:42.863Z,100330.53
2022-12-01T06:34:10.870Z,100337.50
2022-12-01T06:36:38.356Z,100335.88
2022-12-01T06:39:12.161Z,100335.09
2022-12-01T06:41:39.465Z,100326.34
2022-12-01T06:44:06.585Z,100337.47
2022-12-01T06:46:33.977Z,100332.00
2022-12-01T06:49:01.007Z,100335.94
2022-12-01T06:51:28.733Z,100344.00
2022-12-01T06:54:05.421Z,100343.13
2022-12-01T06:56:33.172Z,100334.50
2022-12-01T06:59:00.569Z,100342.56
2022-12-01T07:01:28.473Z,100349.09
2022-12-01T07:04:00.102Z,100347.34
2022-12-01T07:06:32.471Z,100341.53
2022-12-01T07:08:59.488Z,100347.66
2022-12-01T07:11:26.773Z,100346.56
2022-12-01T07:13:57.128Z,100344.03
2022-12-01T07:16:24.546Z,100336.16
2022-12-01T07:18:52.720Z,100336.16
2022-12-01T07:21:20.343Z,100334.22
2022-12-01T07:23:47.393Z,100334.81
2022-12-01T07:26:18.632Z,100334.81
2022-12-01T07:28:45.989Z,100338.97
2022-12-01T07:31:16.123Z,100337.88
2022-12-01T07:33:46.194Z,100337.56
2022-12-01T07:36:14.529Z,100336.09
2022-12-01T07:38:41.951Z,100327.78
2022-12-01T07:41:13.606Z,100340.41
2022-12-01T07:43:43.433Z,100348.81
2022-12-01T07:46:22.214Z,100351.09
2022-12-01T07:48:50.739Z,100359.94
2022-12-01T07:51:19.144Z,100367.09
2022-12-01T07:53:47.921Z,100372.09
2022-12-01T07:56:16.066Z,100372.88
2022-12-01T07:58:43.422Z,100371.53
2022-12-01T08:01:16.370Z,100378.69
2022-12-01T08:03:43.866Z,100380.56
2022-12-01T08:06:11.938Z,100382.06
2022-12-01T08:08:40.787Z,100390.00
2022-12-01T08:11:12.926Z,100381.34
2022-12-01T08:13:41.855Z,100388.97
2022-12-01T08:16:11.823Z,100390.78
2022-12-01T08:18:40.914Z,100400.09
2022-12-01T08:21:11.388Z,100395.56
2022-12-01T08:23:38.548Z,100396.19
2022-12-01T08:26:09.586Z,100407.44
2022-12-01T08:28:36.975Z,100402.75
2022-12-01T08:31:33.370Z,100404.13
2022-12-01T08:34:00.424Z,100403.66
2022-12-01T08:36:27.782Z,100405.53
2022-12-01T08:38:56.308Z,100409.63
2022-12-01T08:41:24.791Z,100414.50
2022-12-01T08:44:00.744Z,100412.91
2022-12-01T08:46:32.804Z,100423.31
2022-12-01T08:49:00.494Z,100424.72
2022-12-01T08:51:31.603Z,100421.16
2022-12-01T08:53:59.682Z,100432.59
2022-12-01T08:56:30.234Z,100426.31
2022-12-01T08:59:00.021Z,100422.50
2022-12-01T09:01:29.802Z,100424.47
2022-12-01T09:04:10.505Z,100425.88
2022-12-01T09:06:40.829Z,100433.03
2022-12-01T09:09:09.585Z,100438.22
2022-12-01T09:11:37.465Z,100416.91
2022-12-01T09:14:07.119Z,100412.31
2022-12-01T09:16:34.632Z,100415.97
2022-12-01T09:19:02.343Z,100414.09
2022-12-01T09:21:32.287Z,100414.91
2022-12-01T09:24:01.677Z,100404.56
2022-12-01T09:26:29.147Z,100397.97
2022-12-01T09:28:59.158Z,100400.47
2022-12-01T09:31:26.879Z,100395.56
2022-12-01T09:33:58.276Z,100406.38
2022-12-01T09:36:28.952Z,100408.41
2022-12-01T09:38:55.992Z,100402.16
2022-12-01T09:41:27.724Z,100394.56
2022-12-01T09:44:05.985Z,100394.91
2022-12-01T09:46:41.538Z,100386.19
2022-12-01T09:49:34.423Z,100378.59
2022-12-01T09:52:01.988Z,100379.28
2022-12-01T09:54:29.653Z,100370.88
2022-12-01T09:57:00.373Z,100364.22
2022-12-01T09:59:33.272Z,100367.22
2022-12-01T10:02:18.197Z,100366.53
2022-12-01T10:04:47.564Z,100370.22
2022-12-01T10:07:21.192Z,100369.91
2022-12-01T10:09:58.364Z,100362.06
2022-12-01T10:12:30.961Z,100360.06
2022-12-01T10:15:11.183Z,100354.22
2022-12-01T10:17:56.794Z,100355.44
2022-12-01T10:20:52.634Z,100352.69
2022-12-01T10:23:42.023Z,100352.44
2022-12-01T10:26:28.770Z,100351.81
2022-12-01T10:29:03.155Z,100339.53
2022-12-01T10:31:42.341Z,100347.03
2022-12-01T10:34:25.968Z,100346.34
2022-12-01T10:36:52.960Z,100351.22
2022-12-01T10:39:31.224Z,100350.19
2022-12-01T10:42:14.862Z,100348.47
2022-12-01T10:44:43.360Z,100344.41
2022-12-01T10:47:36.739Z,100334.63
2022-12-01T10:50:04.677Z,100329.91
2022-12-01T10:52:39.306Z,100337.06
2022-12-01T10:55:32.907Z,100332.66
2022-12-01T10:58:09.231Z,100329.47
2022-12-01T11:00:59.104Z,100332.16
2022-12-01T11:03:33.782Z,100336.22
2022-12-01T11:06:04.667Z,100334.72
2022-12-01T11:08:52.590Z,100332.72
2022-12-01T11:11:36.751Z,100332.53
2022-12-01T11:14:16.833Z,100338.06
2022-12-01T11:16:50.472Z,100331.19
2022-12-01T11:19:23.548Z,100330.69
2022-12-01T11:22:00.520Z,100331.78
2022-12-01T11:24:45.454Z,100330.38
2022-12-01T11:27:31.360Z,100315.88
2022-12-01T11:30:04.966Z,100319.25
2022-12-01T11:32:40.091Z,100328.31
2022-12-01T11:35:16.938Z,100325.97
2022-12-01T11:38:27.251Z,100323.25
2022-12-01T11:40:57.919Z,100323.88
2022-12-01T11:43:37.446Z,100322.63
2022-12-01T11:46:12.017Z,100323.31
2022-12-01T11:48:39.743Z,100319.69
2022-12-01T11:51:12.746Z,100320.91
2022-12-01T11:53:42.992Z,100315.31
2022-12-01T11:56:13.807Z,100321.81
2022-12-01T11:58:43.160Z,100312.25
2022-12-01T12:01:22.382Z,100314.13
2022-12-01T12:04:21.215Z,100316.25
2022-12-01T12:06:57.350Z,100305.81
2022-12-01T12:09:46.547Z,100304.28
2022-12-01T12:12:51.384Z,100301.16
2022-12-01T12:15:21.669Z,100296.88
2022-12-01T12:17:57.742Z,100296.41
2022-12-01T12:20:43.450Z,100297.31
2022-12-01T12:23:10.482Z,100306.00
2022-12-01T12:25:56.237Z,100309.69
2022-12-01T12:29:10.789Z,100302.94
2022-12-01T12:32:11.858Z,100296.06
2022-12-01T12:34:48.106Z,100304.59
2022-12-01T12:38:00.090Z,100296.84
2022-12-01T12:40:27.473Z,100295.16
2022-12-01T12:43:25.179Z,100296.84
2022-12-01T12:46:01.848Z,100292.53
2022-12-01T12:49:03.545Z,100291.19
2022-12-01T12:51:55.195Z,100287.31
2022-12-01T12:54:55.666Z,100284.75
2022-12-01T12:57:25.521Z,100284.81
2022-12-01T12:59:59.515Z,100287.84
2022-12-01T13:02:40.988Z,100289.53
2022-12-01T13:05:53.349Z,100284.22
2022-12-01T13:08:26.244Z,100290.34
2022-12-01T13:11:22.738Z,100283.97
2022-12-01T13:13:50.058Z,100289.16
2022-12-01T13:16:23.056Z,100283.44
2022-12-01T13:19:07.435Z,100280.69
2022-12-01T13:21:39.724Z,100281.00
2022-12-01T13:24:10.629Z,100283.56
2022-12-01T13:26:39.793Z,100288.56
2022-12-01T13:29:09.289Z,100283.66
2022-12-01T13:31:49.807Z,100282.94
2022-12-01T13:34:26.164Z,100284.59
2022-12-01T13:36:56.532Z,100276.84
2022-12-01T13:39:27.831Z,100282.66
2022-12-01T13:42:08.353Z,100285.56
2022-12-01T13:44:44.571Z,100284.81
2022-12-01T13:47:11.975Z,100281.75
2022-12-01T13:49:44.841Z,100274.31
2022-12-01T13:52:21.292Z,100282.69
2022-12-01T13:55:03.628Z,100278.59
2022-12-01T13:57:34.271Z,100282.38
2022-12-01T14:00:01.289Z,100279.06
2022-12-01T14:02:35.128Z,100278.00
2022-12-01T14:05:39.661Z,100271.97
2022-12-01T14:08:23.270Z,100278.66
2022-12-01T14:11:01.409Z,100277.00
2022-12-01T14:13:30.347Z,100272.88
2022-12-01T14:16:03.796Z,100273.34
2022-12-01T14:18:42.868Z,100275.03
2022-12-01T14:21:12.564Z,100278.84
2022-12-01T14:24:04.305Z,100270.31
2022-12-01T14:26:31.688Z,100267.13
2022-12-01T14:29:02.024Z,100279.00
2022-12-01T14:31:35.328Z,100275.69
2022-12-01T14:34:03.858Z,100282.38
2022-12-01T14:36:44.156Z,100269.44
2022-12-01T14:39:13.523Z,100278.28
2022-12-01T14:41:45.697Z,100270.97
2022-12-01T14:44:49.093Z,100275.38
2022-12-01T14:47:41.956Z,100273.41
2022-12-01T14:50:18.581Z,100274.03
2022-12-01T14:52:53.316Z,100276.16
2022-12-01T14:55:37.372Z,100275.41
2022-12-01T14:58:10.213Z,100271.16
2022-12-01T15:00:48.408Z,100273.59
2022-12-01T15:03:15.893Z,100269.78
2022-12-01T15:05:44.333Z,100265.38
2022-12-01T15:08:41.002Z,100270.09
2022-12-01T15:11:13.343Z,100266.59
2022-12-01T15:13:52.941Z,100269.03
2022-12-01T15:16:24.114Z,100278.59
2022-12-01T15:18:51.901Z,100281.81
2022-12-01T15:21:25.360Z,100269.66
2022-12-01T15:24:21.826Z,100278.47
2022-12-01T15:26:50.699Z,100274.97
2022-12-01T15:29:29.287Z,100277.72
2022-12-01T15:32:09.169Z,100280.16
2022-12-01T15:34:40.310Z,100273.59
2022-12-01T15:37:14.237Z,100283.81
2022-12-01T15:39:48.726Z,100280.28
2022-12-01T15:42:29.533Z,100282.72
2022-12-01T15:45:03.222Z,100288.19
2022-12-01T15:47:36.159Z,100287.44
2022-12-01T15:50:06.344Z,100289.44
2022-12-01T15:52:43.083Z,100284.56
2022-12-01T15:55:25.838Z,100280.44
2022-12-01T15:57:54.118Z,100283.94
2022-12-01T16:00:22.703Z,100284.09
2022-12-01T16:02:55.693Z,100280.75
2022-12-01T16:05:32.884Z,100279.97
2022-12-01T16:08:21.489Z,100283.47
2022-12-01T16:11:15.348Z,100281.53
2022-12-01T16:13:48.866Z,100287.91
2022-12-01T16:16:39.493Z,100293.38
2022-12-01T16:19:10.036Z,100285.59
2022-12-01T16:21:49.919Z,100281.66
2022-12-01T16:24:26.633Z,100287.75
2022-12-01T16:27:03.540Z,100278.78
2022-12-01T16:29:34.977Z,100281.66
2022-12-01T16:32:20.742Z,100284.53
2022-12-01T16:34:52.712Z,100291.81
2022-12-01T16:37:21.727Z,100290.31
2022-12-01T16:39:49.900Z,100288.19
2022-12-01T16:42:21.688Z,100294.72
2022-12-01T16:44:50.932Z,100288.75
2022-12-01T16:47:24.477Z,100293.75
2022-12-01T16:49:52.855Z,100288.09
2022-12-01T16:55:41.649Z,100285.97
2022-12-01T16:58:11.518Z,100291.72
2022-12-01T17:00:39.180Z,100298.06
2022-12-01T17:03:07.306Z,100296.22
2022-12-01T17:05:37.996Z,100298.50
2022-12-01T17:08:08.708Z,100294.84
2022-12-01T17:10:45.740Z,100293.00
2022-12-01T17:13:17.624Z,100295.00
2022-12-01T17:15:49.739Z,100303.06
2022-12-01T17:18:18.395Z,100298.47
2022-12-01T17:20:59.383Z,100290.53
2022-12-01T17:23:27.947Z,100297.22
2022-12-01T17:25:57.422Z,100295.53
2022-12-01T17:28:25.230Z,100307.47
2022-12-01T17:30:53.140Z,100309.59
2022-12-01T17:33:20.913Z,100303.03
2022-12-01T17:35:50.432Z,100305.44
2022-12-01T17:38:17.895Z,100305.50
2022-12-01T17:40:45.742Z,100307.84
2022-12-01T17:43:14.316Z,100298.06
2022-12-01T17:45:43.307Z,100299.09
2022-12-01T17:48:13.641Z,100297.81
2022-12-01T17:50:41.454Z,100305.91
2022-12-01T17:53:09.079Z,100305.41
2022-12-01T17:55:40.182Z,100302.94
2022-12-01T17:58:09.917Z,100301.97
2022-12-01T18:00:38.538Z,100304.94
2022-12-01T18:03:07.958Z,100289.91
2022-12-01T18:05:37.072Z,100298.66
2022-12-01T18:08:05.395Z,100297.66
2022-12-01T18:10:33.370Z,100304.44
2022-12-01T18:13:01.177Z,100300.63
2022-12-01T18:15:34.801Z,100298.91
2022-12-01T18:18:06.162Z,100300.84
2022-12-01T18:20:44.054Z,100304.47
2022-12-01T18:23:13.278Z,100305.69
2022-12-01T18:25:41.489Z,100300.44
2022-12-01T18:28:11.250Z,100295.84
2022-12-01T18:30:39.748Z,100297.19
2022-12-01T18:33:11.351Z,100306.13
2022-12-01T18:35:44.613Z,100300.03
2022-12-01T18:38:12.165Z,100315.72
2022-12-01T18:40:40.385Z,100307.53
2022-12-01T18:43:08.569Z,100312.34
2022-12-01T18:45:40.137Z,100304.28
2022-12-01T18:48:08.044Z,100302.31
2022-12-01T18:50:36.375Z,100299.47
2022-12-01T18:53:07.675Z,100299.91
2022-12-01T18:55:39.161Z,100308.84
2022-12-01T18:58:07.393Z,100309.06
2022-12-01T19:00:35.560Z,100305.13
2022-12-01T19:03:06.154Z,100303.81
2022-12-01T19:05:39.237Z,100295.34
2022-12-01T19:08:07.881Z,100300.25
2022-12-01T19:10:36.220Z,100304.81
2022-12-01T19:13:07.145Z,100298.91
2022-12-01T19:15:38.608Z,100299.91
2022-12-01T19:18:07.378Z,100303.25
2022-12-01T19:20:38.118Z,100297.56
2022-12-01T19:23:06.090Z,100295.81
2022-12-01T19:25:34.665Z,100302.03
2022-12-01T19:28:04.400Z,100305.06
2022-12-01T19:30:34.783Z,100295.72
2022-12-01T19:33:02.551Z,100305.72
2022-12-01T19:35:33.981Z,100304.22
2022-12-01T19:38:02.183Z,100301.03
2022-12-01T19:40:30.865Z,100300.94
2022-12-01T19:42:59.064Z,100297.31
2022-12-01T19:45:30.738Z,100291.84
2022-12-01T19:47:59.297Z,100290.66
2022-12-01T19:50:28.203Z,100293.06
2022-12-01T19:52:56.610Z,100293.69
2022-12-01T19:55:25.690Z,100297.19
2022-12-01T19:57:58.253Z,100301.47
2022-12-01T20:00:30.497Z,100304.94
2022-12-01T20:03:00.402Z,100304.81
2022-12-01T20:05:30.826Z,100306.66
2022-12-01T20:08:00.449Z,100309.06
2022-12-01T20:10:30.640Z,100303.63
2022-12-01T20:13:01.007Z,100305.56
2022-12-01T20:15:29.069Z,100304.06
2022-12-01T20:18:00.278Z,100303.75
2022-12-01T20:20:28.472Z,100300.91
2022-12-01T20:22:59.341Z,100308.63
2022-12-01T20:25:27.796Z,100299.69
2022-12-01T20:27:57.440Z,100299.69
2022-12-01T20:30:25.568Z,100300.44
2022-12-01T20:32:53.472Z,100295.44
2022-12-01T20:35:22.029Z,100298.47
2022-12-01T20:37:50.354Z,100299.03
2022-12-01T20:40:22.676Z,100299.69
2022-12-01T20:42:56.073Z,100305.47
2022-12-01T20:45:24.235Z,100293.44
2022-12-01T20:47:52.184Z,100295.00
2022-12-01T20:50:20.212Z,100303.28
2022-12-01T20:52:57.542Z,100302.06
2022-12-01T20:55:26.918Z,100295.56
2022-12-01T20:57:55.082Z,100299.91
2022-12-01T21:00:23.770Z,100299.59
2022-12-01T21:02:51.125Z,100301.56
2022-12-01T21:05:21.255Z,100299.91
2022-12-01T21:07:48.903Z,100302.31
2022-12-01T21:10:19.951Z,100308.53
2022-12-01T21:13:10.625Z,100303.09
2022-12-01T21:15:51.127Z,100311.72
2022-12-01T21:18:27.000Z,100307.44
2022-12-01T21:21:04.005Z,100302.00
2022-12-01T21:23:33.276Z,100302.88
2022-12-01T21:26:00.741Z,100301.69
2022-12-01T21:28:27.779Z,100302.88
2022-12-01T21:31:15.616Z,100299.50
2022-12-01T21:33:43.165Z,100300.72
2022-12-01T21:36:27.723Z,100301.03
2022-12-01T21:38:59.169Z,100299.81
2022-12-01T21:41:30.480Z,100302.22
2022-12-01T21:44:07.759Z,100304.22
2022-12-01T21:46:35.395Z,100302.44
2022-12-01T21:49:02.629Z,100307.56
2022-12-01T21:51:30.933Z,100298.66
2022-12-01T21:53:58.234Z,100301.03
2022-12-01T21:56:27.701Z,100306.16
2022-12-01T21:59:03.396Z,100303.44
2022-12-01T22:01:32.244Z,100308.56
2022-12-01T22:04:02.592Z,100303.13
2022-12-01T22:06:37.905Z,100302.78
2022-12-01T22:09:33.116Z,100304.00
2022-12-01T22:12:26.073Z,100296.88
2022-12-01T22:14:59.121Z,100302.78
2022-12-01T22:17:27.883Z,100304.00
2022-12-01T22:20:01.481Z,100295.81
2022-12-01T22:22:30.449Z,100292.31
2022-12-01T22:25:18.003Z,100294.59
2022-12-01T22:27:45.298Z,100288.84
2022-12-01T22:30:23.414Z,100284.47
2022-12-01T22:32:59.272Z,100284.91
2022-12-01T22:35:36.994Z,100277.50
2022-12-01T22:38:37.780Z,100283.69
2022-12-01T22:41:13.843Z,100283.38
2022-12-01T22:43:43.829Z,100281.53
2022-12-01T22:46:23.856Z,100281.31
2022-12-01T22:48:52.805Z,100276.28
2022-12-01T22:51:22.649Z,100280.53
2022-12-01T22:53:57.763Z,100281.31
2022-12-01T22:56:43.407Z,100281.63
2022-12-01T22:59:19.885Z,100284.81
2022-12-01T23:02:01.794Z,100281.75
2022-12-01T23:04:33.156Z,100284.16
2022-12-01T23:07:23.400Z,100285.03
2022-12-01T23:09:50.770Z,100279.69
2022-12-01T23:12:25.744Z,100271.97
2022-12-01T23:14:55.760Z,100270.53
2022-12-01T23:17:30.863Z,100263.13
2022-12-01T23:20:10.386Z,100275.25
2022-12-01T23:22:41.157Z,100266.31
2022-12-01T23:25:14.658Z,100266.88
2022-12-01T23:27:43.047Z,100264.47
2022-12-01T23:30:12.002Z,100267.31
2022-12-01T23:32:39.271Z,100265.44
2022-12-01T23:35:13.518Z,100265.88
2022-12-01T23:37:42.700Z,100263.16
2022-12-01T23:40:21.053Z,100259.34
2022-12-01T23:42:48.096Z,100256.97
2022-12-01T23:45:23.942Z,100249.97
2022-12-01T23:47:54.514Z,100241.47
2022-12-01T23:50:25.015Z,100241.78
2022-12-01T23:52:52.681Z,100236.78
2022-12-01T23:55:23.217Z,100235.47
2022-12-01T23:57:51.463Z,100234.06
